createdAt,value
2022-12-05T00:00:29.837Z,9.10
2022-12-05T00:02:57.062Z,9.00
2022-12-05T00:05:24.317Z,9.10
2022-12-05T00:07:51.531Z,9.10
2022-12-05T00:10:18.845Z,9.10
2022-12-05T00:12:46.050Z,9.10
2022-12-05T00:15:13.505Z,9.00
2022-12-05T00:17:41.128Z,9.00
2022-12-05T00:20:08.824Z,9.00
2022-12-05T00:22:38.011Z,9.00
2022-12-05T00:25:08.375Z,9.00
2022-12-05T00:27:35.668Z,9.10
2022-12-05T00:30:02.842Z,9.10
2022-12-05T00:32:30.460Z,9.10
2022-12-05T00:34:57.960Z,9.10
2022-12-05T00:37:25.171Z,9.10
2022-12-05T00:39:52.322Z,9.00
2022-12-05T00:42:19.570Z,9.00
2022-12-05T00:44:49.222Z,9.00
2022-12-05T00:47:16.840Z,9.00
2022-12-05T00:49:44.031Z,9.00
2022-12-05T00:52:11.194Z,8.90
2022-12-05T00:54:38.721Z,8.90
2022-12-05T00:57:05.886Z,8.90
2022-12-05T00:59:33.066Z,8.90
2022-12-05T01:02:00.262Z,8.90
2022-12-05T01:04:27.564Z,8.90
2022-12-05T01:06:55.907Z,8.90
2022-12-05T01:09:23.677Z,8.90
2022-12-05T01:11:50.949Z,8.90
2022-12-05T01:14:19.046Z,8.80
2022-12-05T01:16:47.258Z,8.90
2022-12-05T01:19:16.150Z,8.80
2022-12-05T01:21:43.381Z,8.80
2022-12-05T01:24:11.185Z,8.80
2022-12-05T01:26:38.731Z,8.80
2022-12-05T01:29:06.081Z,8.80
2022-12-05T01:31:34.930Z,8.80
2022-12-05T01:34:03.470Z,8.80
2022-12-05T01:36:31.068Z,8.80
2022-12-05T01:38:58.368Z,8.80
2022-12-05T01:41:30.911Z,8.80
2022-12-05T01:43:58.205Z,8.80
2022-12-05T01:46:26.293Z,8.80
2022-12-05T01:48:55.539Z,8.80
2022-12-05T01:51:23.407Z,8.80
2022-12-05T01:53:50.666Z,8.80
2022-12-05T01:56:18.571Z,8.80
2022-12-05T01:58:46.387Z,8.80
2022-12-05T02:01:15.074Z,8.90
2022-12-05T02:03:43.532Z,8.90
2022-12-05T02:06:11.834Z,8.90
2022-12-05T02:08:39.342Z,8.90
2022-12-05T02:11:07.090Z,8.90
2022-12-05T02:13:52.454Z,8.90
2022-12-05T02:16:27.919Z,8.80
2022-12-05T02:18:57.911Z,8.90
2022-12-05T02:21:45.314Z,8.90
2022-12-05T02:24:18.308Z,8.90
2022-12-05T02:26:45.452Z,9.00
2022-12-05T02:29:31.454Z,9.00
2022-12-05T02:32:13.973Z,8.90
2022-12-05T02:34:59.380Z,9.00
2022-12-05T02:37:29.830Z,8.90
2022-12-05T02:40:03.107Z,9.00
2022-12-05T02:42:37.961Z,8.90
2022-12-05T02:45:09.820Z,9.00
2022-12-05T02:47:38.723Z,9.00
2022-12-05T02:50:07.265Z,9.00
2022-12-05T02:52:34.912Z,9.00
2022-12-05T02:55:03.687Z,9.00
2022-12-05T02:57:31.617Z,9.00
2022-12-05T02:59:59.034Z,9.00
2022-12-05T03:02:33.275Z,9.00
2022-12-05T03:05:19.149Z,9.00
2022-12-05T03:07:48.329Z,9.00
2022-12-05T03:10:16.950Z,9.00
2022-12-05T03:12:48.707Z,9.00
2022-12-05T03:15:23.014Z,9.00
2022-12-05T03:17:57.200Z,9.00
2022-12-05T03:20:29.051Z,9.10
2022-12-05T03:22:58.895Z,9.00
2022-12-05T03:25:32.513Z,9.10
2022-12-05T03:28:05.036Z,9.10
2022-12-05T03:30:35.065Z,9.10
2022-12-05T03:33:10.385Z,9.10
2022-12-05T03:36:04.411Z,9.00
2022-12-05T03:38:34.623Z,9.00
2022-12-05T03:41:19.901Z,9.00
2022-12-05T03:43:47.059Z,9.00
2022-12-05T03:46:14.299Z,9.00
2022-12-05T03:49:01.797Z,9.00
2022-12-05T03:51:33.349Z,9.00
2022-12-05T03:54:04.692Z,9.00
2022-12-05T03:56:35.059Z,9.10
2022-12-05T03:59:16.474Z,9.10
2022-12-05T04:01:47.009Z,9.10
2022-12-05T04:04:17.057Z,9.10
2022-12-05T04:06:45.589Z,9.10
2022-12-05T04:09:17.507Z,9.10
2022-12-05T04:11:50.892Z,9.00
2022-12-05T04:14:34.151Z,9.00
2022-12-05T04:17:13.614Z,9.10
2022-12-05T04:20:13.836Z,9.00
2022-12-05T04:22:41.413Z,9.00
2022-12-05T04:25:28.594Z,9.00
2022-12-05T04:28:01.831Z,9.00
2022-12-05T04:30:50.896Z,9.10
2022-12-05T04:33:34.822Z,9.00
2022-12-05T04:36:16.372Z,9.10
2022-12-05T04:38:49.879Z,9.10
2022-12-05T04:41:21.076Z,9.00
2022-12-05T04:43:48.959Z,9.00
2022-12-05T04:46:18.258Z,9.00
2022-12-05T04:48:50.339Z,9.00
2022-12-05T04:51:23.056Z,9.10
2022-12-05T04:54:02.451Z,9.10
2022-12-05T04:56:32.708Z,9.00
2022-12-05T04:59:00.057Z,9.00
2022-12-05T05:01:47.633Z,9.10
2022-12-05T05:04:17.104Z,9.10
2022-12-05T05:06:44.335Z,9.10
2022-12-05T05:09:11.533Z,9.20
2022-12-05T05:11:39.211Z,9.20
2022-12-05T05:14:06.468Z,9.20
2022-12-05T05:16:35.314Z,9.20
2022-12-05T05:19:02.966Z,9.20
2022-12-05T05:21:31.381Z,9.20
2022-12-05T05:23:58.961Z,9.30
2022-12-05T05:26:26.677Z,9.30
2022-12-05T05:28:54.233Z,9.30
2022-12-05T05:31:21.654Z,9.30
2022-12-05T05:33:50.555Z,9.30
2022-12-05T05:36:18.153Z,9.30
2022-12-05T05:38:46.750Z,9.40
2022-12-05T05:41:18.032Z,9.30
2022-12-05T05:43:45.718Z,9.30
2022-12-05T05:46:13.670Z,9.30
2022-12-05T05:48:41.003Z,9.40
2022-12-05T05:51:09.818Z,9.40
2022-12-05T05:53:37.484Z,9.40
2022-12-05T05:56:05.745Z,9.40
2022-12-05T05:58:32.970Z,9.30
2022-12-05T06:01:06.568Z,9.30
2022-12-05T06:03:34.132Z,9.30
2022-12-05T06:06:03.121Z,9.30
2022-12-05T06:08:34.252Z,9.30
2022-12-05T06:11:05.192Z,9.20
2022-12-05T06:13:32.502Z,9.20
2022-12-05T06:15:59.821Z,9.20
2022-12-05T06:18:27.079Z,9.30
2022-12-05T06:20:54.568Z,9.30
2022-12-05T06:23:22.013Z,9.30
2022-12-05T06:25:49.828Z,9.30
2022-12-05T06:28:17.357Z,9.20
2022-12-05T06:30:44.824Z,9.20
2022-12-05T06:33:12.404Z,9.30
2022-12-05T06:35:39.745Z,9.30
2022-12-05T06:38:07.380Z,9.30
2022-12-05T06:40:34.595Z,9.30
2022-12-05T06:43:01.752Z,9.20
2022-12-05T06:45:28.959Z,9.20
2022-12-05T06:47:56.113Z,9.20
2022-12-05T06:50:23.326Z,9.20
2022-12-05T06:52:50.824Z,9.20
2022-12-05T06:55:18.023Z,9.20
2022-12-05T06:57:45.287Z,9.20
2022-12-05T07:00:31.355Z,9.20
2022-12-05T07:02:58.559Z,9.30
2022-12-05T07:05:25.813Z,9.30
2022-12-05T07:07:53.151Z,9.40
2022-12-05T07:10:20.342Z,9.40
2022-12-05T07:12:47.532Z,9.50
2022-12-05T07:15:14.817Z,9.50
2022-12-05T07:17:42.022Z,9.60
2022-12-05T07:20:10.465Z,9.60
2022-12-05T07:22:37.687Z,9.70
2022-12-05T07:25:05.008Z,9.80
2022-12-05T07:27:32.195Z,9.90
2022-12-05T07:29:59.552Z,10.00
2022-12-05T07:32:26.940Z,10.00
2022-12-05T07:34:55.653Z,10.10
2022-12-05T07:37:23.834Z,10.10
2022-12-05T07:39:52.118Z,10.10
2022-12-05T07:42:19.281Z,10.20
2022-12-05T07:44:46.759Z,10.20
2022-12-05T07:47:13.934Z,10.40
2022-12-05T07:49:41.231Z,10.60
2022-12-05T07:52:09.483Z,10.60
2022-12-05T07:54:36.676Z,10.60
2022-12-05T07:57:03.926Z,10.70
2022-12-05T07:59:31.155Z,10.70
2022-12-05T08:02:00.888Z,10.60
2022-12-05T08:04:28.146Z,10.60
2022-12-05T08:06:55.327Z,10.60
2022-12-05T08:09:23.347Z,10.60
2022-12-05T08:11:52.770Z,10.50
2022-12-05T08:14:20.219Z,10.50
2022-12-05T08:16:47.468Z,10.50
2022-12-05T08:19:16.984Z,10.50
2022-12-05T08:21:44.305Z,10.40
2022-12-05T08:24:11.983Z,10.50
2022-12-05T08:26:39.379Z,10.60
2022-12-05T08:29:10.520Z,10.60
2022-12-05T08:31:47.299Z,10.70
2022-12-05T08:34:15.050Z,10.80
2022-12-05T08:36:42.682Z,10.90
2022-12-05T08:39:14.175Z,10.80
2022-12-05T08:41:42.135Z,10.80
2022-12-05T08:44:10.605Z,10.90
2022-12-05T08:46:38.662Z,10.90
2022-12-05T08:49:06.378Z,10.90
2022-12-05T08:51:33.856Z,11.00
2022-12-05T08:54:04.687Z,11.00
2022-12-05T08:56:33.035Z,11.00
2022-12-05T08:59:05.824Z,10.90
2022-12-05T09:01:34.430Z,10.90
2022-12-05T09:04:02.480Z,10.90
2022-12-05T09:06:29.910Z,10.90
2022-12-05T09:09:01.054Z,10.90
2022-12-05T09:11:29.899Z,10.90
2022-12-05T09:13:58.115Z,10.90
2022-12-05T09:16:35.159Z,10.90
2022-12-05T09:19:14.271Z,10.90
2022-12-05T09:21:43.127Z,10.90
2022-12-05T09:24:11.751Z,11.00
2022-12-05T09:26:39.463Z,11.00
2022-12-05T09:29:08.839Z,11.00
2022-12-05T09:31:38.677Z,11.10
2022-12-05T09:34:06.346Z,11.00
2022-12-05T09:36:33.612Z,11.10
2022-12-05T09:39:05.479Z,11.20
2022-12-05T09:42:03.819Z,11.40
2022-12-05T09:44:50.175Z,11.60
2022-12-05T09:47:17.778Z,11.90
2022-12-05T09:49:50.879Z,12.00
2022-12-05T09:52:29.518Z,12.10
2022-12-05T09:54:57.392Z,12.10
2022-12-05T09:57:33.520Z,12.10
2022-12-05T10:00:02.388Z,12.20
2022-12-05T10:02:31.924Z,12.10
2022-12-05T10:05:03.801Z,12.00
2022-12-05T10:07:31.133Z,12.00
2022-12-05T10:10:20.236Z,11.90
2022-12-05T10:13:02.863Z,11.80
2022-12-05T10:15:35.963Z,11.70
2022-12-05T10:18:05.085Z,11.70
2022-12-05T10:20:38.269Z,11.60
2022-12-05T10:23:27.935Z,11.70
2022-12-05T10:26:00.141Z,11.60
2022-12-05T10:28:31.730Z,11.50
2022-12-05T10:31:01.872Z,11.50
2022-12-05T10:33:33.621Z,11.50
2022-12-05T10:36:00.912Z,11.50
2022-12-05T10:38:29.411Z,11.60
2022-12-05T10:41:00.472Z,11.60
2022-12-05T10:43:28.943Z,11.60
2022-12-05T10:45:56.784Z,11.60
2022-12-05T10:48:24.127Z,11.50
2022-12-05T10:50:52.532Z,11.50
2022-12-05T10:53:38.140Z,11.60
2022-12-05T10:56:32.539Z,11.60
2022-12-05T10:59:00.676Z,11.70
2022-12-05T11:01:28.539Z,11.90
2022-12-05T11:03:58.045Z,12.10
2022-12-05T11:06:26.870Z,12.30
2022-12-05T11:09:04.466Z,12.40
2022-12-05T11:11:33.485Z,12.40
2022-12-05T11:14:02.629Z,12.30
2022-12-05T11:16:31.541Z,12.20
2022-12-05T11:19:17.297Z,12.10
2022-12-05T11:21:44.482Z,12.20
2022-12-05T11:24:21.553Z,12.30
2022-12-05T11:26:49.161Z,12.40
2022-12-05T11:29:34.898Z,12.50
2022-12-05T11:32:03.479Z,12.50
2022-12-05T11:34:38.106Z,12.40
2022-12-05T11:37:20.324Z,12.30
2022-12-05T11:39:47.563Z,12.20
2022-12-05T11:42:17.858Z,12.20
2022-12-05T11:44:52.399Z,12.20
2022-12-05T11:47:37.968Z,12.40
2022-12-05T11:50:07.986Z,12.60
2022-12-05T11:52:40.443Z,12.60
2022-12-05T11:55:22.491Z,12.50
2022-12-05T11:58:08.251Z,12.40
2022-12-05T12:00:44.559Z,12.40
2022-12-05T12:03:34.757Z,12.40
2022-12-05T12:06:04.948Z,12.30
2022-12-05T12:08:41.007Z,12.50
2022-12-05T12:11:20.427Z,12.40
2022-12-05T12:13:50.440Z,12.40
2022-12-05T12:16:28.391Z,12.40
2022-12-05T12:19:25.147Z,12.30
2022-12-05T12:21:52.274Z,12.30
2022-12-05T12:24:22.481Z,12.30
2022-12-05T12:26:59.650Z,12.20
2022-12-05T12:29:46.785Z,12.10
2022-12-05T12:32:13.993Z,12.20
2022-12-05T12:34:41.157Z,12.10
2022-12-05T12:37:08.453Z,12.10
2022-12-05T12:39:35.677Z,12.10
2022-12-05T12:42:05.648Z,12.10
2022-12-05T12:44:35.892Z,12.10
2022-12-05T12:47:04.235Z,12.00
2022-12-05T12:49:47.043Z,12.00
2022-12-05T12:52:14.275Z,11.90
2022-12-05T12:55:02.753Z,11.90
2022-12-05T12:57:32.628Z,11.90
2022-12-05T13:00:03.979Z,11.90
2022-12-05T13:02:51.438Z,11.90
2022-12-05T13:05:38.123Z,11.80
2022-12-05T13:08:11.983Z,11.80
2022-12-05T13:10:46.347Z,11.80
2022-12-05T13:13:18.424Z,11.70
2022-12-05T13:15:47.928Z,11.80
2022-12-05T13:18:16.855Z,11.80
2022-12-05T13:20:44.591Z,12.00
2022-12-05T13:23:16.211Z,12.10
2022-12-05T13:25:43.967Z,12.10
2022-12-05T13:28:31.415Z,12.20
2022-12-05T13:31:02.530Z,12.20
2022-12-05T13:33:31.724Z,12.10
2022-12-05T13:36:43.558Z,12.10
2022-12-05T13:39:32.695Z,12.00
2022-12-05T13:42:15.258Z,12.00
2022-12-05T13:44:46.894Z,11.90
2022-12-05T13:47:28.857Z,11.90
2022-12-05T13:50:01.483Z,11.90
2022-12-05T13:52:32.731Z,11.90
2022-12-05T13:55:34.073Z,11.80
2022-12-05T13:58:23.202Z,11.70
2022-12-05T14:00:51.379Z,11.70
2022-12-05T14:03:24.377Z,11.80
2022-12-05T14:05:53.235Z,11.80
2022-12-05T14:08:32.501Z,11.80
2022-12-05T14:10:59.787Z,11.70
2022-12-05T14:13:27.097Z,11.80
2022-12-05T14:15:54.959Z,11.70
2022-12-05T14:18:32.803Z,11.70
2022-12-05T14:21:12.018Z,11.60
2022-12-05T14:23:59.613Z,11.60
2022-12-05T14:26:39.139Z,11.50
2022-12-05T14:29:25.184Z,11.50
2022-12-05T14:31:52.405Z,11.50
2022-12-05T14:34:25.024Z,11.40
2022-12-05T14:37:12.511Z,11.40
2022-12-05T14:39:39.710Z,11.40
2022-12-05T14:42:27.176Z,11.40
2022-12-05T14:44:56.128Z,11.40
2022-12-05T14:47:25.324Z,11.40
2022-12-05T14:49:55.039Z,11.40
2022-12-05T14:52:24.267Z,11.30
2022-12-05T14:54:53.176Z,11.30
2022-12-05T14:57:20.868Z,11.40
2022-12-05T14:59:51.402Z,11.30
2022-12-05T15:02:24.471Z,11.40
2022-12-05T15:05:05.718Z,11.30
2022-12-05T15:07:35.100Z,11.20
2022-12-05T15:10:02.559Z,11.20
2022-12-05T15:12:29.903Z,11.20
2022-12-05T15:15:01.551Z,11.20
2022-12-05T15:17:36.168Z,11.20
2022-12-05T15:20:07.196Z,11.20
2022-12-05T15:22:36.517Z,11.20
2022-12-05T15:25:36.251Z,11.20
2022-12-05T15:28:05.590Z,11.20
2022-12-05T15:30:35.749Z,11.10
2022-12-05T15:33:03.043Z,11.20
2022-12-05T15:35:32.197Z,11.10
2022-12-05T15:37:59.742Z,11.10
2022-12-05T15:40:37.082Z,11.10
2022-12-05T15:43:24.499Z,11.10
2022-12-05T15:46:06.242Z,11.10
2022-12-05T15:48:33.837Z,11.10
2022-12-05T15:51:02.965Z,11.10
2022-12-05T15:53:33.274Z,11.10
2022-12-05T15:56:00.903Z,11.10
2022-12-05T15:58:33.887Z,11.10
2022-12-05T16:01:01.040Z,11.00
2022-12-05T16:03:34.239Z,11.00
2022-12-05T16:06:06.928Z,11.00
2022-12-05T16:08:41.897Z,11.00
2022-12-05T16:11:09.601Z,11.00
2022-12-05T16:13:37.867Z,11.00
2022-12-05T16:16:05.469Z,10.90
2022-12-05T16:18:32.803Z,10.90
2022-12-05T16:21:24.006Z,10.90
2022-12-05T16:23:59.477Z,11.00
2022-12-05T16:26:27.541Z,11.00
2022-12-05T16:28:58.909Z,11.00
2022-12-05T16:31:26.178Z,10.90
2022-12-05T16:34:04.200Z,10.90
2022-12-05T16:36:31.835Z,10.90
2022-12-05T16:39:03.804Z,10.90
2022-12-05T16:41:38.184Z,10.90
2022-12-05T16:44:16.194Z,10.80
2022-12-05T16:46:46.083Z,10.70
2022-12-05T16:49:21.200Z,10.70
2022-12-05T16:52:14.748Z,10.60
2022-12-05T16:54:42.701Z,10.70
2022-12-05T16:57:12.212Z,10.70
2022-12-05T16:59:39.789Z,10.70
2022-12-05T17:02:10.487Z,10.70
2022-12-05T17:04:38.739Z,10.70
2022-12-05T17:07:06.000Z,10.60
2022-12-05T17:09:33.283Z,10.60
2022-12-05T17:12:20.676Z,10.60
2022-12-05T17:14:47.955Z,10.60
2022-12-05T17:17:19.009Z,10.60
2022-12-05T17:19:46.248Z,10.50
2022-12-05T17:22:17.511Z,10.50
2022-12-05T17:24:45.647Z,10.50
2022-12-05T17:27:12.887Z,10.50
2022-12-05T17:29:40.069Z,10.50
2022-12-05T17:32:09.759Z,10.50
2022-12-05T17:34:36.899Z,10.50
2022-12-05T17:37:04.143Z,10.50
2022-12-05T17:39:31.792Z,10.50
2022-12-05T17:41:58.999Z,10.50
2022-12-05T17:44:26.432Z,10.50
2022-12-05T17:46:53.775Z,10.50
2022-12-05T17:49:22.772Z,10.60
2022-12-05T17:52:20.491Z,10.60
2022-12-05T17:54:40.951Z,10.60
2022-12-05T17:57:08.164Z,10.60
2022-12-05T17:59:35.362Z,10.60
2022-12-05T18:02:02.566Z,10.60
2022-12-05T18:04:29.766Z,10.60
2022-12-05T18:06:56.930Z,10.60
2022-12-05T18:09:24.101Z,10.60
2022-12-05T18:11:51.261Z,10.60
2022-12-05T18:14:18.495Z,10.60
2022-12-05T18:16:45.699Z,10.60
2022-12-05T18:19:12.956Z,10.50
2022-12-05T18:21:40.124Z,10.50
2022-12-05T18:24:10.672Z,10.50
2022-12-05T18:26:38.633Z,10.60
2022-12-05T18:29:05.809Z,10.50
2022-12-05T18:31:33.090Z,10.60
2022-12-05T18:34:00.475Z,10.60
2022-12-05T18:36:28.312Z,10.60
2022-12-05T18:38:56.908Z,10.50
2022-12-05T18:41:24.349Z,10.60
2022-12-05T18:43:51.541Z,10.60
2022-12-05T18:46:19.090Z,10.60
2022-12-05T18:48:48.090Z,10.60
2022-12-05T18:51:21.390Z,10.60
2022-12-05T18:53:53.016Z,10.50
2022-12-05T18:56:22.777Z,10.50
2022-12-05T18:58:54.215Z,10.50
2022-12-05T19:01:21.476Z,10.40
2022-12-05T19:03:50.379Z,10.30
2022-12-05T19:06:21.867Z,10.30
2022-12-05T19:08:49.343Z,10.30
2022-12-05T19:11:19.439Z,10.30
2022-12-05T19:13:47.558Z,10.30
2022-12-05T19:16:19.192Z,10.20
2022-12-05T19:18:47.210Z,10.20
2022-12-05T19:21:14.436Z,10.20
2022-12-05T19:23:41.616Z,10.10
2022-12-05T19:26:09.841Z,10.10
2022-12-05T19:28:37.333Z,10.10
2022-12-05T19:31:05.753Z,10.00
2022-12-05T19:33:34.236Z,10.00
2022-12-05T19:36:02.989Z,9.90
2022-12-05T19:38:30.981Z,9.90
2022-12-05T19:40:58.284Z,9.90
2022-12-05T19:43:25.470Z,9.80
2022-12-05T19:45:52.935Z,9.80
2022-12-05T19:48:20.154Z,9.80
2022-12-05T19:50:57.298Z,9.60
2022-12-05T19:53:24.996Z,9.50
2022-12-05T19:55:52.323Z,9.50
2022-12-05T19:58:19.528Z,9.40
2022-12-05T20:00:47.488Z,9.50
2022-12-05T20:03:14.713Z,9.50
2022-12-05T20:05:41.985Z,9.50
2022-12-05T20:08:09.245Z,9.50
2022-12-05T20:10:37.812Z,9.50
2022-12-05T20:13:12.888Z,9.50
2022-12-05T20:15:51.611Z,9.50
2022-12-05T20:18:18.791Z,9.50
2022-12-05T20:20:55.744Z,9.50
2022-12-05T20:23:22.883Z,9.40
2022-12-05T20:25:50.077Z,9.30
2022-12-05T20:28:17.246Z,9.20
2022-12-05T20:30:44.441Z,9.20
2022-12-05T20:33:11.660Z,9.30
2022-12-05T20:35:38.845Z,9.30
2022-12-05T20:38:06.178Z,9.40
2022-12-05T20:40:33.483Z,9.40
2022-12-05T20:43:00.846Z,9.40
2022-12-05T20:45:27.993Z,9.50
2022-12-05T20:47:55.185Z,9.60
2022-12-05T20:50:22.340Z,9.60
2022-12-05T20:52:49.823Z,9.60
2022-12-05T20:55:17.557Z,9.60
2022-12-05T20:57:44.726Z,9.60
2022-12-05T21:00:12.354Z,9.60
2022-12-05T21:02:39.573Z,9.60
2022-12-05T21:05:07.101Z,9.60
2022-12-05T21:07:34.317Z,9.60
2022-12-05T21:10:07.734Z,9.60
2022-12-05T21:12:35.493Z,9.50
2022-12-05T21:15:02.767Z,9.50
2022-12-05T21:17:30.919Z,9.60
2022-12-05T21:19:58.313Z,9.60
2022-12-05T21:22:25.746Z,9.60
2022-12-05T21:24:52.979Z,9.60
2022-12-05T21:27:20.636Z,9.60
2022-12-05T21:29:47.835Z,9.60
2022-12-05T21:32:15.077Z,9.50
2022-12-05T21:34:42.281Z,9.40
2022-12-05T21:37:09.463Z,9.40
2022-12-05T21:39:36.734Z,9.30
2022-12-05T21:42:03.992Z,9.30
2022-12-05T21:44:31.432Z,9.20
2022-12-05T21:46:58.678Z,9.20
2022-12-05T21:49:25.892Z,9.20
2022-12-05T21:51:53.043Z,9.00
2022-12-05T21:54:21.279Z,8.90
2022-12-05T21:56:48.415Z,8.70
2022-12-05T21:59:15.588Z,8.70
2022-12-05T22:01:42.910Z,8.70
2022-12-05T22:04:10.179Z,8.60
2022-12-05T22:06:37.391Z,8.40
2022-12-05T22:09:04.606Z,8.40
2022-12-05T22:11:31.895Z,8.40
2022-12-05T22:13:59.089Z,8.40
2022-12-05T22:16:32.490Z,8.40
2022-12-05T22:19:00.635Z,8.40
2022-12-05T22:21:28.112Z,8.40
2022-12-05T22:23:55.297Z,8.30
2022-12-05T22:26:24.217Z,8.20
2022-12-05T22:28:52.492Z,8.20
2022-12-05T22:31:20.363Z,8.10
2022-12-05T22:33:48.430Z,8.20
2022-12-05T22:36:16.581Z,8.10
2022-12-05T22:38:44.745Z,8.10
2022-12-05T22:41:14.327Z,8.10
2022-12-05T22:43:42.120Z,8.00
2022-12-05T22:46:11.001Z,8.00
2022-12-05T22:48:38.371Z,7.90
2022-12-05T22:51:06.627Z,7.80
2022-12-05T22:53:34.345Z,7.80
2022-12-05T22:56:02.736Z,7.80
2022-12-05T22:58:30.052Z,7.80
2022-12-05T23:00:57.591Z,7.80
2022-12-05T23:03:24.921Z,7.80
2022-12-05T23:05:52.359Z,7.80
2022-12-05T23:08:19.667Z,7.70
2022-12-05T23:10:46.931Z,7.70
2022-12-05T23:13:14.305Z,7.60
2022-12-05T23:15:41.650Z,7.50
2022-12-05T23:18:08.945Z,7.50
2022-12-05T23:20:36.246Z,7.60
2022-12-05T23:23:03.480Z,7.60
2022-12-05T23:25:30.708Z,7.50
2022-12-05T23:27:58.216Z,7.50
2022-12-05T23:30:25.431Z,7.60
2022-12-05T23:32:52.845Z,7.60
2022-12-05T23:35:20.132Z,7.60
2022-12-05T23:37:50.344Z,7.50
2022-12-05T23:40:17.615Z,7.50
2022-12-05T23:42:44.864Z,7.50
2022-12-05T23:45:12.149Z,7.40
2022-12-05T23:47:39.430Z,7.30
2022-12-05T23:50:07.145Z,7.20
2022-12-05T23:52:35.831Z,7.20
2022-12-05T23:55:03.096Z,7.10
2022-12-05T23:57:30.724Z,7.00
2022-12-05T23:59:58.264Z,7.10
